Time;durP1;ratioP1;P1;durP2;ratioP2;P2;SDS_P1;SDS_P2;PMS_P1;PMS_P2;Temp;Humidity;BMP_temperature;BMP_pressure;BME280_temperature;BME280_humidity;BME280_pressure;Samples;Min_cycle;Max_cycle;Signal;HPM_P1;HPM_P2
2023/06/10 00:00:41;;;;;;;23.52;11.38;;;;;;;19.99;74.36;101220.38;5083700;28;20027;-74
2023/06/10 00:03:07;;;;;;;21.40;10.52;;;;;;;19.97;73.89;101212.38;5066559;28;20039;-74
2023/06/10 00:05:32;;;;;;;20.00;10.75;;;;;;;19.93;76.01;101211.00;5100590;28;20050;-74
2023/06/10 00:07:58;;;;;;;19.98;10.52;;;;;;;19.90;74.95;101214.91;5088164;28;20475;-74
2023/06/10 00:10:24;;;;;;;21.20;10.68;;;;;;;19.90;71.62;101214.06;5084858;28;20496;-74
2023/06/10 00:12:49;;;;;;;20.35;10.02;;;;;;;19.87;73.90;101219.84;5089439;28;20537;-74
2023/06/10 00:15:15;;;;;;;23.08;11.23;;;;;;;19.85;74.25;101213.69;5079469;28;20416;-74
2023/06/10 00:17:40;;;;;;;20.52;10.85;;;;;;;19.84;72.77;101222.88;5087677;28;20042;-74
2023/06/10 00:20:11;;;;;;;20.15;11.00;;;;;;;19.83;71.97;101219.28;5104265;28;20028;-74
2023/06/10 00:22:39;;;;;;;20.90;11.50;;;;;;;19.79;74.58;101217.91;5111049;28;20526;-74
2023/06/10 00:25:05;;;;;;;19.77;11.18;;;;;;;19.74;75.66;101225.72;5096754;28;20028;-74
2023/06/10 00:27:34;;;;;;;21.30;10.93;;;;;;;19.70;72.02;101221.59;5077837;28;20114;-74
2023/06/10 00:30:04;;;;;;;20.83;10.93;;;;;;;19.67;78.14;101224.66;5099422;28;20397;-74
2023/06/10 00:32:29;;;;;;;22.35;10.70;;;;;;;19.60;75.70;101226.31;5097075;28;20440;-74
2023/06/10 00:34:55;;;;;;;20.63;11.25;;;;;;;19.53;77.20;101224.25;5069675;28;20033;-74
2023/06/10 00:37:20;;;;;;;21.63;12.13;;;;;;;19.47;78.90;101218.56;5100681;28;20487;-74
2023/06/10 00:39:46;;;;;;;20.45;11.55;;;;;;;19.42;75.09;101220.94;5096209;28;20386;-74
2023/06/10 00:42:11;;;;;;;21.80;11.65;;;;;;;19.36;77.62;101225.19;5105373;28;20071;-74
2023/06/10 00:44:36;;;;;;;21.23;10.93;;;;;;;19.31;79.35;101231.13;5099629;28;20032;-74
2023/06/10 00:47:02;;;;;;;19.35;9.98;;;;;;;19.25;80.19;101228.16;5113043;28;20035;-75
2023/06/10 00:49:27;;;;;;;21.02;13.25;;;;;;;19.17;80.16;101221.63;5088113;28;20024;-74
2023/06/10 00:51:53;;;;;;;21.23;11.10;;;;;;;19.11;79.03;101225.00;5103162;28;20106;-74
2023/06/10 00:54:19;;;;;;;20.70;11.18;;;;;;;19.08;80.57;101219.00;5101271;28;20486;-74
2023/06/10 00:56:44;;;;;;;23.77;12.15;;;;;;;19.01;78.82;101225.09;5068995;28;20029;-75
2023/06/10 00:59:10;;;;;;;23.02;12.10;;;;;;;18.96;80.17;101222.00;5097337;28;20028;-74
2023/06/10 01:01:37;;;;;;;20.35;11.63;;;;;;;18.90;79.87;101217.16;5113375;28;20055;-74
2023/06/10 01:04:03;;;;;;;21.80;12.20;;;;;;;18.85;81.34;101220.34;5109681;28;20353;-74
2023/06/10 01:06:50;;;;;;;21.30;11.80;;;;;;;18.81;79.18;101223.53;5091722;28;20110;-75
2023/06/10 01:09:31;;;;;;;21.15;11.35;;;;;;;18.74;79.21;101220.63;5080275;28;20517;-75
2023/06/10 01:12:08;;;;;;;22.23;12.30;;;;;;;18.67;79.16;101216.81;5105931;28;20028;-74
2023/06/10 01:14:35;;;;;;;22.40;11.75;;;;;;;18.61;80.88;101217.41;5096145;28;20037;-74
2023/06/10 01:17:01;;;;;;;21.75;12.00;;;;;;;18.56;80.52;101225.19;5104010;28;20027;-74
2023/06/10 01:19:28;;;;;;;21.23;11.93;;;;;;;18.51;80.92;101218.34;5086995;28;20191;-74
2023/06/10 01:21:54;;;;;;;22.42;12.45;;;;;;;18.47;80.90;101227.00;5084628;28;20093;-74
2023/06/10 01:24:20;;;;;;;21.02;12.07;;;;;;;18.42;77.88;101230.19;5101471;28;20069;-74
2023/06/10 01:26:51;;;;;;;22.65;13.20;;;;;;;18.39;81.07;101230.50;5065780;28;20447;-74
2023/06/10 01:29:40;;;;;;;22.45;13.15;;;;;;;18.35;79.36;101226.38;5090886;28;20032;-74
2023/06/10 01:32:16;;;;;;;21.48;12.23;;;;;;;18.29;79.96;101226.97;5110133;28;20038;-75
2023/06/10 01:34:43;;;;;;;23.02;13.25;;;;;;;18.24;80.64;101229.28;5088694;28;20343;-74
2023/06/10 01:37:13;;;;;;;21.52;13.15;;;;;;;18.17;81.56;101235.34;5089404;28;20033;-75
2023/06/10 01:39:39;;;;;;;21.90;12.63;;;;;;;18.12;81.67;101229.50;5086232;28;20574;-74
2023/06/10 01:42:06;;;;;;;21.23;12.30;;;;;;;18.06;81.10;101232.84;5112877;28;20054;-75
2023/06/10 01:44:32;;;;;;;21.73;11.77;;;;;;;18.01;80.29;101221.56;5088624;28;20258;-74
2023/06/10 01:46:57;;;;;;;22.10;12.68;;;;;;;17.97;81.36;101231.03;5081873;28;20080;-75
2023/06/10 01:49:23;;;;;;;24.70;13.63;;;;;;;17.91;81.16;101227.06;5108905;28;20027;-75
2023/06/10 01:51:49;;;;;;;22.52;12.27;;;;;;;17.87;82.45;101233.78;5097554;28;20024;-74
2023/06/10 01:54:14;;;;;;;21.10;11.88;;;;;;;17.82;80.28;101226.06;5104568;28;20027;-74
2023/06/10 01:56:39;;;;;;;23.75;13.00;;;;;;;17.81;82.19;101228.94;5101125;28;20024;-75
2023/06/10 01:59:08;;;;;;;22.10;12.75;;;;;;;17.78;79.19;101230.09;5084806;28;20028;-74
2023/06/10 02:01:33;;;;;;;22.88;13.32;;;;;;;17.78;80.71;101232.81;5095293;28;20023;-74
2023/06/10 02:03:58;;;;;;;22.50;12.73;;;;;;;17.75;81.17;101233.13;5089587;28;20612;-74
2023/06/10 02:06:24;;;;;;;23.15;14.00;;;;;;;17.77;79.81;101235.69;5080661;28;20402;-75
2023/06/10 02:08:49;;;;;;;21.73;12.45;;;;;;;17.73;80.21;101234.25;5078988;28;20035;-75
2023/06/10 02:11:15;;;;;;;21.02;12.27;;;;;;;17.72;81.09;101236.13;5083321;28;20028;-74
2023/06/10 02:13:43;;;;;;;22.27;13.60;;;;;;;17.68;80.50;101236.59;5082681;28;20479;-74
2023/06/10 02:16:12;;;;;;;22.65;13.38;;;;;;;17.68;80.64;101234.72;5096091;28;20027;-74
2023/06/10 02:18:40;;;;;;;22.08;12.88;;;;;;;17.66;80.84;101234.03;5084137;28;20473;-75
2023/06/10 02:21:06;;;;;;;24.95;14.80;;;;;;;17.61;79.80;101233.59;5100009;28;20120;-74
2023/06/10 02:23:32;;;;;;;23.40;14.05;;;;;;;17.58;80.71;101236.63;5077736;28;20035;-75
2023/06/10 02:25:57;;;;;;;22.77;13.15;;;;;;;17.53;80.88;101239.78;5098122;28;20028;-74
2023/06/10 02:28:22;;;;;;;24.58;13.40;;;;;;;17.51;80.06;101246.38;5093269;28;20032;-74
2023/06/10 02:30:48;;;;;;;22.77;13.10;;;;;;;17.49;82.10;101246.53;5081885;28;20137;-74
2023/06/10 02:33:14;;;;;;;24.83;14.43;;;;;;;17.47;80.14;101245.81;5103483;28;20487;-75
2023/06/10 02:35:39;;;;;;;22.13;13.60;;;;;;;17.42;82.60;101249.00;5102814;28;20023;-74
2023/06/10 02:38:05;;;;;;;24.35;14.07;;;;;;;17.37;82.38;101245.00;5079817;28;20079;-74
2023/06/10 02:40:31;;;;;;;23.38;14.50;;;;;;;17.32;81.93;101247.28;5097737;28;20032;-74
2023/06/10 02:42:57;;;;;;;23.35;13.48;;;;;;;17.31;81.93;101241.00;5090050;28;20080;-75
2023/06/10 02:45:22;;;;;;;25.60;14.82;;;;;;;17.26;82.59;101240.56;5091950;28;20048;-74
2023/06/10 02:47:47;;;;;;;24.42;15.68;;;;;;;17.26;81.34;101243.28;5077553;28;20458;-74
2023/06/10 02:50:13;;;;;;;25.73;15.13;;;;;;;17.24;82.42;101239.88;5069825;28;20051;-75
2023/06/10 02:52:38;;;;;;;24.35;14.73;;;;;;;17.20;82.68;101239.28;5077242;28;20024;-74
2023/06/10 02:55:04;;;;;;;24.08;15.15;;;;;;;17.19;83.03;101248.47;5109962;28;20471;-74
2023/06/10 02:57:29;;;;;;;23.25;14.60;;;;;;;17.16;82.45;101237.91;5105423;28;20063;-74
2023/06/10 02:59:54;;;;;;;22.50;14.48;;;;;;;17.13;83.10;101246.34;5098458;28;20040;-74
2023/06/10 03:02:20;;;;;;;25.25;14.35;;;;;;;17.11;81.55;101251.91;5095627;28;20127;-74
2023/06/10 03:04:45;;;;;;;24.20;14.32;;;;;;;17.09;84.68;101244.91;5083238;28;20039;-75
2023/06/10 03:07:11;;;;;;;25.70;14.48;;;;;;;17.07;83.68;101245.06;5095363;28;20042;-74
2023/06/10 03:09:36;;;;;;;25.58;15.57;;;;;;;17.05;84.66;101244.34;5113090;28;20475;-74
2023/06/10 03:12:02;;;;;;;24.13;15.35;;;;;;;17.04;83.73;101250.78;5111451;28;20027;-74
2023/06/10 03:14:27;;;;;;;22.42;14.02;;;;;;;17.03;84.78;101250.91;5115452;28;20047;-75
2023/06/10 03:16:53;;;;;;;25.35;15.98;;;;;;;17.00;84.26;101257.50;5102655;28;20147;-74
2023/06/10 03:19:18;;;;;;;24.52;15.27;;;;;;;16.97;84.32;101246.94;5105094;28;20115;-75
2023/06/10 03:21:44;;;;;;;24.60;15.43;;;;;;;16.94;84.21;101249.91;5092413;28;20491;-74
2023/06/10 03:24:10;;;;;;;24.98;14.48;;;;;;;16.90;84.01;101252.06;5112679;28;20028;-75
2023/06/10 03:26:36;;;;;;;25.80;15.27;;;;;;;16.89;85.39;101257.66;5109472;28;20113;-75
2023/06/10 03:29:01;;;;;;;24.38;15.48;;;;;;;16.84;84.47;101260.78;5103051;28;20451;-75
2023/06/10 03:31:26;;;;;;;25.50;16.27;;;;;;;16.84;85.18;101254.47;5111056;28;20055;-74
2023/06/10 03:33:52;;;;;;;24.15;16.02;;;;;;;16.83;85.27;101263.63;5115641;28;20035;-74
2023/06/10 03:36:17;;;;;;;24.33;14.90;;;;;;;16.79;86.83;101263.03;5077618;28;20483;-75
2023/06/10 03:38:42;;;;;;;23.92;15.65;;;;;;;16.80;86.47;101270.19;5089039;28;20034;-74
2023/06/10 03:41:08;;;;;;;24.30;14.77;;;;;;;16.75;86.38;101267.91;5105864;28;20034;-75
2023/06/10 03:43:33;;;;;;;26.23;15.13;;;;;;;16.72;86.30;101264.59;5103069;28;20123;-74
2023/06/10 03:45:58;;;;;;;25.33;16.60;;;;;;;16.69;87.66;101267.59;5099616;28;20027;-74
2023/06/10 03:48:24;;;;;;;25.02;15.52;;;;;;;16.68;86.46;101274.06;5106230;28;20393;-74
2023/06/10 03:50:50;;;;;;;25.30;16.38;;;;;;;16.68;86.70;101276.78;5090138;28;20062;-75
2023/06/10 03:53:16;;;;;;;26.60;16.85;;;;;;;16.64;87.97;101276.19;5092504;28;20126;-75
2023/06/10 03:55:41;;;;;;;26.27;17.55;;;;;;;16.63;88.23;101269.03;5093173;28;20047;-74
2023/06/10 03:58:07;;;;;;;35.25;17.45;;;;;;;16.64;87.81;101270.75;5082915;28;20057;-74
2023/06/10 04:00:41;;;;;;;24.10;15.25;;;;;;;16.67;87.87;101275.06;5070102;28;20497;-74
2023/06/10 04:03:08;;;;;;;26.25;15.70;;;;;;;16.67;87.89;101275.91;5098740;28;20024;-75
2023/06/10 04:05:34;;;;;;;27.38;16.80;;;;;;;16.67;88.06;101280.47;5109857;28;20075;-75
2023/06/10 04:08:01;;;;;;;24.85;16.48;;;;;;;16.68;88.08;101274.06;5101441;28;20024;-74
2023/06/10 04:10:27;;;;;;;24.83;15.73;;;;;;;16.71;88.68;101277.34;5079318;28;20028;-74
2023/06/10 04:12:52;;;;;;;26.27;17.15;;;;;;;16.72;88.06;101267.31;5092282;28;20194;-75
2023/06/10 04:15:17;;;;;;;29.80;17.20;;;;;;;16.75;87.33;101278.78;5103496;28;20024;-74
2023/06/10 04:17:43;;;;;;;29.23;18.30;;;;;;;16.76;88.55;101269.63;5099114;28;20024;-75
2023/06/10 04:20:09;;;;;;;27.23;15.95;;;;;;;16.80;88.09;101275.63;5107777;28;20036;-75
2023/06/10 04:22:36;;;;;;;25.13;16.42;;;;;;;16.85;86.84;101277.91;5081474;28;20627;-75
2023/06/10 04:25:01;;;;;;;25.75;16.90;;;;;;;16.87;87.74;101284.06;5094856;28;20022;-75
2023/06/10 04:27:27;;;;;;;25.10;16.40;;;;;;;16.89;89.48;101284.81;5086800;28;20442;-74
2023/06/10 04:29:52;;;;;;;27.10;17.50;;;;;;;16.88;87.45;101283.94;5086260;28;20432;-75
2023/06/10 04:32:17;;;;;;;31.42;17.48;;;;;;;16.92;86.96;101287.22;5110125;28;20091;-74
2023/06/10 04:34:43;;;;;;;27.75;18.33;;;;;;;16.95;88.15;101295.09;5099411;28;20129;-75
2023/06/10 04:37:08;;;;;;;25.38;17.55;;;;;;;16.98;87.24;101289.34;5102192;28;20031;-74
2023/06/10 04:39:33;;;;;;;24.23;16.23;;;;;;;17.00;87.71;101292.81;5104702;28;20038;-75
2023/06/10 04:41:59;;;;;;;25.95;17.55;;;;;;;17.04;86.56;101293.34;5089052;28;20032;-75
2023/06/10 04:44:24;;;;;;;27.42;16.63;;;;;;;17.05;88.52;101292.38;5107980;28;20043;-75
2023/06/10 04:46:50;;;;;;;27.25;16.95;;;;;;;17.05;88.25;101295.94;5103634;28;20027;-74
2023/06/10 04:49:15;;;;;;;27.63;16.10;;;;;;;17.08;87.35;101294.78;5086300;28;20045;-75
2023/06/10 04:51:40;;;;;;;25.33;16.40;;;;;;;17.12;88.05;101297.06;5084348;28;20457;-75
2023/06/10 04:54:06;;;;;;;27.10;17.23;;;;;;;17.15;86.75;101287.78;5095328;28;20053;-75
2023/06/10 04:56:32;;;;;;;26.00;15.93;;;;;;;17.18;85.79;101294.78;5085827;28;20063;-75
2023/06/10 04:58:57;;;;;;;28.58;16.33;;;;;;;17.23;86.37;101303.34;5081156;28;20086;-75
2023/06/10 05:01:23;;;;;;;26.10;17.15;;;;;;;17.26;86.73;101295.78;5090432;28;20027;-75
2023/06/10 05:03:48;;;;;;;28.73;17.00;;;;;;;17.30;84.95;101294.47;5094237;28;20054;-75
2023/06/10 05:06:14;;;;;;;25.08;15.57;;;;;;;17.35;86.00;101288.63;5082746;28;20100;-75
2023/06/10 05:08:39;;;;;;;24.00;15.32;;;;;;;17.38;86.07;101296.47;5080488;28;20027;-74
2023/06/10 05:11:04;;;;;;;28.05;16.80;;;;;;;17.42;85.21;101294.31;5080840;28;20538;-75
2023/06/10 05:13:29;;;;;;;24.02;15.88;;;;;;;17.46;84.58;101295.72;5095591;28;20428;-75
2023/06/10 05:15:55;;;;;;;26.30;15.45;;;;;;;17.51;84.10;101303.44;5089221;28;20099;-75
2023/06/10 05:18:21;;;;;;;25.15;15.75;;;;;;;17.55;84.95;101296.72;5112614;28;20019;-75
2023/06/10 05:20:46;;;;;;;25.00;15.23;;;;;;;17.58;85.80;101296.41;5083569;28;20062;-75
2023/06/10 05:23:12;;;;;;;26.65;16.38;;;;;;;17.62;84.91;101297.84;5093491;28;20020;-76
2023/06/10 05:25:37;;;;;;;25.80;15.65;;;;;;;17.66;86.04;101296.53;5091808;28;20061;-75
2023/06/10 05:28:02;;;;;;;26.90;15.32;;;;;;;17.71;84.48;101301.53;5072934;28;20021;-74
2023/06/10 05:30:27;;;;;;;28.88;15.85;;;;;;;17.75;84.25;101287.50;5077925;28;20053;-75
2023/06/10 05:32:53;;;;;;;25.38;15.35;;;;;;;17.80;86.46;101298.78;5101197;28;20467;-75
2023/06/10 05:35:18;;;;;;;26.98;16.00;;;;;;;17.85;84.15;101297.47;5092310;28;20028;-75
2023/06/10 05:37:44;;;;;;;25.92;15.85;;;;;;;17.89;85.17;101291.59;5088213;28;20505;-75
2023/06/10 05:40:10;;;;;;;25.40;16.58;;;;;;;17.93;82.96;101301.19;5112913;28;20039;-74
2023/06/10 05:42:35;;;;;;;25.23;15.70;;;;;;;17.99;83.38;101297.00;5097725;28;20025;-75
2023/06/10 05:45:02;;;;;;;24.50;14.43;;;;;;;18.07;80.49;101299.84;5083679;28;20020;-75
2023/06/10 05:47:27;;;;;;;24.05;14.52;;;;;;;18.12;81.59;101299.38;5077079;28;20097;-75
2023/06/10 05:49:53;;;;;;;26.27;14.35;;;;;;;18.19;81.75;101292.34;5095329;28;20023;-74
2023/06/10 05:52:18;;;;;;;26.60;15.55;;;;;;;18.25;82.01;101294.44;5079272;28;20085;-74
2023/06/10 05:54:44;;;;;;;26.10;14.70;;;;;;;18.32;81.60;101297.41;5089250;28;20028;-74
2023/06/10 05:57:10;;;;;;;23.52;13.40;;;;;;;18.37;80.23;101303.25;5073452;28;20036;-74
2023/06/10 05:59:35;;;;;;;25.42;13.63;;;;;;;18.40;79.43;101302.94;5062619;28;20025;-74
2023/06/10 06:02:00;;;;;;;24.77;14.85;;;;;;;18.48;79.55;101304.91;5099254;28;20233;-77
2023/06/10 06:04:26;;;;;;;26.48;14.07;;;;;;;18.52;79.56;101304.44;5087416;28;20027;-75
2023/06/10 06:06:51;;;;;;;24.42;13.77;;;;;;;18.58;79.55;101307.56;5073537;28;20039;-75
2023/06/10 06:09:16;;;;;;;25.58;14.68;;;;;;;18.64;78.93;101309.69;5074669;28;20062;-74
2023/06/10 06:11:42;;;;;;;23.95;13.25;;;;;;;18.68;79.50;101306.50;5103381;28;20464;-76
2023/06/10 06:14:07;;;;;;;23.63;13.77;;;;;;;18.73;78.15;101300.56;5090372;28;20419;-76
2023/06/10 06:16:32;;;;;;;25.20;13.98;;;;;;;18.79;80.46;101304.56;5083758;28;20039;-75
2023/06/10 06:18:58;;;;;;;25.88;14.05;;;;;;;18.85;77.79;101312.09;5088710;28;20028;-75
2023/06/10 06:21:23;;;;;;;24.05;12.27;;;;;;;18.88;76.80;101305.53;5069280;28;20474;-75
2023/06/10 06:23:49;;;;;;;24.35;13.40;;;;;;;18.96;77.13;101308.28;5070879;28;20028;-76
2023/06/10 06:26:14;;;;;;;27.30;13.70;;;;;;;19.01;76.70;101301.38;5077265;28;20039;-76
2023/06/10 06:28:40;;;;;;;24.63;12.93;;;;;;;19.09;76.96;101302.44;5096815;28;20047;-76
2023/06/10 06:31:05;;;;;;;24.00;13.25;;;;;;;19.12;75.12;101307.59;5090887;28;20021;-74
2023/06/10 06:33:30;;;;;;;23.45;13.10;;;;;;;19.19;76.15;101297.78;5077027;28;20093;-76
2023/06/10 06:35:56;;;;;;;23.85;12.05;;;;;;;19.23;75.31;101314.69;5066020;28;20039;-75
2023/06/10 06:38:21;;;;;;;22.63;12.27;;;;;;;19.34;73.68;101308.94;5080360;28;20063;-75
2023/06/10 06:40:46;;;;;;;24.75;12.35;;;;;;;19.37;73.89;101311.34;5066798;28;20035;-75
2023/06/10 06:43:12;;;;;;;25.63;14.15;;;;;;;19.45;73.42;101316.88;5082402;28;20042;-75
2023/06/10 06:45:37;;;;;;;22.48;11.70;;;;;;;19.47;73.29;101316.72;5101099;28;20028;-76
2023/06/10 06:48:03;;;;;;;25.38;13.68;;;;;;;19.55;73.38;101324.97;5083806;28;20060;-75
2023/06/10 06:50:28;;;;;;;21.90;11.05;;;;;;;19.61;71.88;101318.88;5086811;28;20512;-76
2023/06/10 06:52:53;;;;;;;21.77;12.27;;;;;;;19.69;71.81;101323.50;5084138;28;20036;-75
2023/06/10 06:55:19;;;;;;;25.02;12.98;;;;;;;19.73;73.37;101317.56;5068777;28;20035;-76
2023/06/10 06:57:44;;;;;;;25.05;13.20;;;;;;;19.82;73.13;101320.38;5073266;28;20047;-75
2023/06/10 07:00:10;;;;;;;24.00;13.05;;;;;;;19.86;71.46;101322.63;5073386;28;20075;-75
2023/06/10 07:02:35;;;;;;;26.33;12.60;;;;;;;19.93;72.23;101327.41;5066023;28;20059;-75
2023/06/10 07:05:01;;;;;;;24.45;13.38;;;;;;;19.95;72.93;101322.66;5066835;28;20028;-75
2023/06/10 07:07:26;;;;;;;24.70;12.50;;;;;;;20.02;72.71;101321.00;5067842;28;20135;-75
2023/06/10 07:09:52;;;;;;;23.42;11.82;;;;;;;20.11;74.48;101324.63;5067596;28;20024;-75
2023/06/10 07:12:18;;;;;;;24.23;11.23;;;;;;;20.11;72.35;101328.19;5064041;28;20095;-75
2023/06/10 07:14:44;;;;;;;23.73;12.15;;;;;;;20.18;70.55;101334.72;5064867;28;20047;-75
2023/06/10 07:17:09;;;;;;;23.25;12.20;;;;;;;20.24;70.85;101328.59;5061294;28;20468;-76
2023/06/10 07:19:35;;;;;;;21.58;11.63;;;;;;;20.28;71.08;101331.88;5064237;28;20389;-75
2023/06/10 07:22:00;;;;;;;22.02;10.38;;;;;;;20.32;71.88;101338.69;5064561;28;20085;-76
2023/06/10 07:24:25;;;;;;;22.10;11.32;;;;;;;20.35;70.61;101337.50;5064479;28;20416;-75
2023/06/10 07:26:51;;;;;;;21.38;10.77;;;;;;;20.45;67.72;101338.22;5064424;28;20036;-75
2023/06/10 07:29:16;;;;;;;20.00;10.15;;;;;;;20.49;68.75;101336.03;5079154;28;20586;-75
2023/06/10 07:31:41;;;;;;;23.30;11.10;;;;;;;20.62;73.07;101335.56;5084289;28;20020;-76
2023/06/10 07:34:07;;;;;;;23.13;12.15;;;;;;;20.66;69.66;101339.66;5099770;28;20118;-76
2023/06/10 07:36:32;;;;;;;20.85;10.25;;;;;;;20.75;69.21;101336.81;5094429;28;20126;-75
2023/06/10 07:38:58;;;;;;;24.10;10.68;;;;;;;20.78;70.25;101349.28;5075465;28;20067;-76
2023/06/10 07:41:25;;;;;;;21.27;10.00;;;;;;;20.80;70.48;101340.91;5059798;28;20021;-76
2023/06/10 07:43:54;;;;;;;21.55;9.77;;;;;;;20.84;69.02;101348.59;5063548;28;20085;-75
2023/06/10 07:46:20;;;;;;;23.27;10.05;;;;;;;20.88;69.25;101344.53;5078175;28;20032;-76
2023/06/10 07:48:45;;;;;;;22.85;11.02;;;;;;;20.95;67.91;101341.94;5068580;28;20061;-75
2023/06/10 07:51:10;;;;;;;22.25;11.30;;;;;;;21.00;67.60;101352.41;5068226;28;20342;-75
2023/06/10 07:53:36;;;;;;;19.88;9.23;;;;;;;21.09;67.92;101346.75;5067740;28;20090;-75
2023/06/10 07:56:01;;;;;;;23.02;9.40;;;;;;;21.13;68.61;101347.28;5074919;28;20408;-75
2023/06/10 07:58:26;;;;;;;20.75;9.73;;;;;;;21.15;67.76;101350.69;5068515;28;20036;-74
2023/06/10 08:00:52;;;;;;;19.98;9.70;;;;;;;21.21;65.09;101343.69;5070450;28;20071;-75
2023/06/10 08:03:17;;;;;;;21.05;9.55;;;;;;;21.30;65.34;101340.78;5076811;28;20087;-76
2023/06/10 08:05:43;;;;;;;21.10;9.10;;;;;;;21.39;65.15;101340.78;5087946;28;20109;-75
2023/06/10 08:08:08;;;;;;;23.65;9.38;;;;;;;21.36;65.89;101341.13;5101710;28;20035;-75
2023/06/10 08:10:33;;;;;;;21.42;9.93;;;;;;;21.50;62.57;101331.38;5101166;28;20013;-75
2023/06/10 08:12:58;;;;;;;22.77;10.43;;;;;;;21.50;63.09;101337.69;5086444;28;20536;-75
2023/06/10 08:15:24;;;;;;;21.10;9.82;;;;;;;21.57;62.82;101333.28;5101224;28;20095;-74
2023/06/10 08:17:50;;;;;;;21.00;10.00;;;;;;;21.67;63.65;101343.16;5083397;28;20051;-74
2023/06/10 08:20:15;;;;;;;21.83;8.52;;;;;;;21.68;60.99;101336.69;5093865;28;20028;-73
2023/06/10 08:22:40;;;;;;;20.42;9.48;;;;;;;21.69;63.38;101335.66;5099747;28;20024;-75
2023/06/10 08:25:06;;;;;;;20.85;9.32;;;;;;;21.76;61.57;101339.41;5079882;28;20033;-75
2023/06/10 08:27:31;;;;;;;19.58;9.65;;;;;;;21.75;64.37;101337.69;5105239;28;20024;-76
2023/06/10 08:29:58;;;;;;;20.90;9.23;;;;;;;21.82;61.09;101341.44;5096729;28;20034;-75
2023/06/10 08:32:23;;;;;;;20.42;8.65;;;;;;;21.82;63.68;101335.97;5089153;28;20055;-75
2023/06/10 08:34:48;;;;;;;17.45;7.63;;;;;;;21.84;63.21;101336.63;5092136;28;20099;-76
2023/06/10 08:37:13;;;;;;;19.20;9.15;;;;;;;21.91;61.27;101345.84;5105601;28;20454;-75
2023/06/10 08:39:39;;;;;;;18.77;8.65;;;;;;;21.94;62.30;101337.28;5107767;28;20024;-75
2023/06/10 08:42:07;;;;;;;18.65;8.55;;;;;;;22.05;60.46;101337.94;5090931;28;20016;-77
2023/06/10 08:44:37;;;;;;;18.33;7.87;;;;;;;22.09;61.69;101339.28;5081531;28;20028;-73
2023/06/10 08:47:08;;;;;;;18.83;8.05;;;;;;;22.23;60.12;101343.19;5061925;28;20040;-75
2023/06/10 08:49:39;;;;;;;24.50;9.38;;;;;;;22.18;60.87;101346.44;5072379;28;20024;-77
2023/06/10 08:52:06;;;;;;;19.73;9.38;;;;;;;22.27;60.56;101342.66;5066830;28;20028;-74
2023/06/10 08:54:37;;;;;;;19.35;8.20;;;;;;;22.29;60.76;101342.47;5067287;28;20033;-76
2023/06/10 08:57:05;;;;;;;18.23;8.00;;;;;;;22.32;59.90;101340.25;5081827;28;20059;-76
2023/06/10 08:59:32;;;;;;;19.58;8.98;;;;;;;22.37;60.57;101336.97;5082665;28;20067;-75
2023/06/10 09:01:58;;;;;;;20.02;8.93;;;;;;;22.48;60.13;101339.31;5102482;28;20039;-75
2023/06/10 09:04:24;;;;;;;19.60;9.48;;;;;;;22.53;58.94;101344.25;5097984;28;20023;-75
2023/06/10 09:06:51;;;;;;;19.48;9.02;;;;;;;22.59;59.09;101331.72;5100896;28;20032;-75
2023/06/10 09:09:17;;;;;;;24.15;9.40;;;;;;;22.69;59.39;101330.50;5097301;28;20450;-75
2023/06/10 09:11:43;;;;;;;20.70;8.70;;;;;;;22.69;58.09;101338.72;5095972;28;20035;-76
2023/06/10 09:14:08;;;;;;;20.67;8.82;;;;;;;22.69;57.87;101335.09;5084476;28;20056;-73
2023/06/10 09:16:34;;;;;;;20.88;8.75;;;;;;;22.69;59.45;101325.00;5071495;28;20035;-74
2023/06/10 09:19:00;;;;;;;20.63;9.23;;;;;;;22.68;58.21;101331.53;5085194;28;20031;-74
2023/06/10 09:21:25;;;;;;;18.58;8.70;;;;;;;22.79;60.09;101329.41;5098939;28;20055;-75
2023/06/10 09:23:51;;;;;;;19.25;9.10;;;;;;;22.85;57.14;101332.25;5088371;28;20024;-76
2023/06/10 09:26:17;;;;;;;20.95;8.23;;;;;;;22.86;59.44;101333.13;5097640;28;20029;-75
2023/06/10 09:28:49;;;;;;;21.95;8.88;;;;;;;23.01;60.26;101327.69;5106248;28;20054;-74
2023/06/10 09:31:18;;;;;;;19.13;8.70;;;;;;;23.11;56.45;101338.44;5088392;28;20025;-78
2023/06/10 09:33:45;;;;;;;19.57;8.00;;;;;;;22.95;59.12;101329.28;5100031;28;20026;-76
2023/06/10 09:36:11;;;;;;;23.00;8.95;;;;;;;23.03;58.13;101333.84;5102874;28;20032;-76
2023/06/10 09:38:37;;;;;;;19.33;8.93;;;;;;;23.23;56.59;101339.72;5096871;28;20083;-75
2023/06/10 09:41:03;;;;;;;18.10;8.32;;;;;;;23.15;57.55;101331.53;5105257;28;20044;-75
2023/06/10 09:43:40;;;;;;;17.48;7.82;;;;;;;23.14;59.59;101336.19;5092389;28;20039;-75
2023/06/10 09:46:05;;;;;;;20.30;8.60;;;;;;;23.27;61.21;101335.56;5105494;28;20042;-76
2023/06/10 09:48:40;;;;;;;18.48;7.25;;;;;;;23.22;60.65;101327.03;5100277;28;20032;-75
2023/06/10 09:51:09;;;;;;;19.77;7.82;;;;;;;23.28;59.24;101331.81;5095970;28;20024;-75
2023/06/10 09:53:35;;;;;;;18.90;7.97;;;;;;;23.36;60.19;101330.88;5100261;28;20017;-75
2023/06/10 09:56:00;;;;;;;18.00;8.10;;;;;;;23.34;59.58;101325.56;5096480;28;20032;-75
2023/06/10 09:58:36;;;;;;;20.48;8.52;;;;;;;23.43;58.09;101326.34;5105590;28;20032;-75
2023/06/10 10:01:05;;;;;;;21.02;9.05;;;;;;;23.44;58.66;101318.97;5069404;28;20025;-75
2023/06/10 10:03:30;;;;;;;;;;;;;;;23.44;59.12;101325.31;5097772;28;20024;-76
2023/06/10 10:06:02;;;;;;;17.30;7.70;;;;;;;23.40;59.22;101318.50;5104818;28;19916;-75
2023/06/10 10:08:28;;;;;;;18.23;8.05;;;;;;;23.47;58.55;101318.59;5079199;28;20278;-75
2023/06/10 10:10:56;;;;;;;20.30;8.02;;;;;;;23.58;59.43;101323.63;5095038;28;20043;-76
2023/06/10 10:13:22;;;;;;;21.35;8.93;;;;;;;23.64;58.22;101313.78;5110402;28;20128;-77
2023/06/10 10:15:48;;;;;;;16.63;7.32;;;;;;;23.68;57.68;101312.38;5096595;28;20042;-76
2023/06/10 10:18:17;;;;;;;17.38;7.82;;;;;;;23.72;55.64;101309.06;5103508;28;20477;-75
2023/06/10 10:20:52;;;;;;;17.38;8.27;;;;;;;23.78;56.97;101306.59;5121126;28;20082;-75
2023/06/10 10:23:34;;;;;;;19.92;8.65;;;;;;;23.87;56.99;101308.25;5108241;28;20072;-75
2023/06/10 10:26:03;;;;;;;18.58;8.38;;;;;;;23.92;56.95;101305.78;5107751;28;20047;-74
2023/06/10 10:28:40;;;;;;;20.00;8.70;;;;;;;24.00;55.56;101302.94;5101634;28;20055;-75
2023/06/10 10:31:11;;;;;;;16.05;7.10;;;;;;;23.90;57.32;101300.47;5102150;28;20024;-75
2023/06/10 10:33:46;;;;;;;22.38;9.35;;;;;;;24.05;55.36;101297.72;5107245;28;20023;-77
2023/06/10 10:36:13;;;;;;;24.20;9.18;;;;;;;24.17;55.75;101302.72;5102650;28;20043;-75
2023/06/10 10:38:39;;;;;;;18.48;8.63;;;;;;;24.23;54.75;101301.97;5126432;28;20019;-75
2023/06/10 10:41:05;;;;;;;18.15;8.70;;;;;;;24.32;53.79;101306.31;5107295;28;20062;-75
2023/06/10 10:43:32;;;;;;;21.70;9.35;;;;;;;24.35;52.32;101302.31;5120305;28;20031;-75
2023/06/10 10:46:01;;;;;;;22.58;9.82;;;;;;;24.49;54.65;101300.59;5124963;28;20030;-76
2023/06/10 10:48:34;;;;;;;16.85;7.50;;;;;;;24.31;55.51;101301.03;5105087;28;20060;-74
2023/06/10 10:50:59;;;;;;;18.05;8.00;;;;;;;24.25;55.26;101298.00;5118544;28;20115;-75
2023/06/10 10:53:28;;;;;;;19.48;7.90;;;;;;;24.32;54.03;101289.84;5077635;28;20123;-75
2023/06/10 10:56:05;;;;;;;19.37;8.77;;;;;;;24.41;55.54;101299.66;5088108;28;20049;-75
2023/06/10 10:58:31;;;;;;;20.60;8.70;;;;;;;24.54;53.42;101298.97;5105505;28;20027;-76
2023/06/10 11:00:57;;;;;;;20.15;8.93;;;;;;;24.56;53.63;101296.88;5109272;28;20131;-75
2023/06/10 11:03:28;;;;;;;18.20;7.97;;;;;;;24.61;56.63;101293.56;5093471;28;20027;-75
2023/06/10 11:05:57;;;;;;;20.13;8.32;;;;;;;24.63;54.59;101291.50;5093997;28;20471;-75
2023/06/10 11:08:28;;;;;;;19.42;8.68;;;;;;;24.63;54.62;101301.59;5123953;28;20506;-76